sensor_id;sensor_type;location;lat;lon;timestamp;temperature;humidity
39019;DHT22;24786;51.984;5.872;2023-11-19T00:07:19;12.50;99.90
39019;DHT22;24786;51.984;5.872;2023-11-19T00:09:49;12.50;99.90
39019;DHT22;24786;51.984;5.872;2023-11-19T00:12:24;12.50;99.90
39019;DHT22;24786;51.984;5.872;2023-11-19T00:14:55;12.60;99.90
39019;DHT22;24786;51.984;5.872;2023-11-19T00:17:24;12.60;99.90
39019;DHT22;24786;51.984;5.872;2023-11-19T00:19:55;12.60;99.90
39019;DHT22;24786;51.984;5.872;2023-11-19T00:22:35;12.60;99.90
39019;DHT22;24786;51.984;5.872;2023-11-19T00:25:00;12.50;99.90
39019;DHT22;24786;51.984;5.872;2023-11-19T00:30:27;12.60;99.90
39019;DHT22;24786;51.984;5.872;2023-11-19T00:33:23;12.70;99.90
39019;DHT22;24786;51.984;5.872;2023-11-19T00:38:52;12.70;99.90
39019;DHT22;24786;51.984;5.872;2023-11-19T00:41:22;12.70;99.90
39019;DHT22;24786;51.984;5.872;2023-11-19T00:43:54;12.70;99.90
39019;DHT22;24786;51.984;5.872;2023-11-19T00:46:26;12.80;99.90
39019;DHT22;24786;51.984;5.872;2023-11-19T00:48:57;12.70;99.90
39019;DHT22;24786;51.984;5.872;2023-11-19T00:54:20;12.70;99.90
39019;DHT22;24786;51.984;5.872;2023-11-19T00:56:52;12.80;99.90
39019;DHT22;24786;51.984;5.872;2023-11-19T00:59:21;12.80;99.90
39019;DHT22;24786;51.984;5.872;2023-11-19T01:01:52;12.70;99.90
39019;DHT22;24786;51.984;5.872;2023-11-19T01:07:31;12.80;99.90
39019;DHT22;24786;51.984;5.872;2023-11-19T01:09:57;12.80;99.90
39019;DHT22;24786;51.984;5.872;2023-11-19T01:17:54;12.80;99.90
39019;DHT22;24786;51.984;5.872;2023-11-19T01:20:19;12.80;99.90
39019;DHT22;24786;51.984;5.872;2023-11-19T01:22:57;12.80;99.90
39019;DHT22;24786;51.984;5.872;2023-11-19T02:28:00;12.80;99.90
39019;DHT22;24786;51.984;5.872;2023-11-19T02:30:29;12.90;99.90
39019;DHT22;24786;51.984;5.872;2023-11-19T02:56:29;12.70;99.90
39019;DHT22;24786;51.984;5.872;2023-11-19T02:58:59;12.70;99.90
39019;DHT22;24786;51.984;5.872;2023-11-19T03:01:28;12.70;99.90
39019;DHT22;24786;51.984;5.872;2023-11-19T03:04:19;12.70;99.90
39019;DHT22;24786;51.984;5.872;2023-11-19T03:06:54;12.70;99.90
39019;DHT22;24786;51.984;5.872;2023-11-19T03:15:22;12.60;99.90
39019;DHT22;24786;51.984;5.872;2023-11-19T03:17:56;12.50;99.90
39019;DHT22;24786;51.984;5.872;2023-11-19T03:20:25;12.50;99.90
39019;DHT22;24786;51.984;5.872;2023-11-19T03:22:58;12.50;99.90
39019;DHT22;24786;51.984;5.872;2023-11-19T03:28:20;12.50;99.90
39019;DHT22;24786;51.984;5.872;2023-11-19T03:30:51;12.50;99.90
39019;DHT22;24786;51.984;5.872;2023-11-19T03:33:24;12.40;99.90
39019;DHT22;24786;51.984;5.872;2023-11-19T03:35:54;12.40;99.90
39019;DHT22;24786;51.984;5.872;2023-11-19T03:38:24;12.30;99.90
39019;DHT22;24786;51.984;5.872;2023-11-19T03:40:55;12.30;99.90
39019;DHT22;24786;51.984;5.872;2023-11-19T03:43:24;12.30;99.90
39019;DHT22;24786;51.984;5.872;2023-11-19T03:48:52;12.20;99.90
39019;DHT22;24786;51.984;5.872;2023-11-19T04:00:25;12.00;99.90
39019;DHT22;24786;51.984;5.872;2023-11-19T04:02:53;12.00;99.90
39019;DHT22;24786;51.984;5.872;2023-11-19T04:05:24;11.90;99.90
39019;DHT22;24786;51.984;5.872;2023-11-19T04:07:59;11.90;99.90
39019;DHT22;24786;51.984;5.872;2023-11-19T04:15:24;11.70;99.90
39019;DHT22;24786;51.984;5.872;2023-11-19T04:17:56;11.70;99.90
39019;DHT22;24786;51.984;5.872;2023-11-19T04:20:24;11.60;99.90
39019;DHT22;24786;51.984;5.872;2023-11-19T04:23:00;11.60;99.90
39019;DHT22;24786;51.984;5.872;2023-11-19T04:25:26;11.60;99.90
39019;DHT22;24786;51.984;5.872;2023-11-19T04:27:54;11.60;99.90
39019;DHT22;24786;51.984;5.872;2023-11-19T04:30:22;11.50;99.90
39019;DHT22;24786;51.984;5.872;2023-11-19T04:32:53;11.60;99.90
39019;DHT22;24786;51.984;5.872;2023-11-19T04:35:21;11.50;99.90
39019;DHT22;24786;51.984;5.872;2023-11-19T04:37:58;11.50;99.90
39019;DHT22;24786;51.984;5.872;2023-11-19T04:40:24;11.50;99.90
39019;DHT22;24786;51.984;5.872;2023-11-19T04:42:59;11.40;99.90
39019;DHT22;24786;51.984;5.872;2023-11-19T04:45:24;11.40;99.90
39019;DHT22;24786;51.984;5.872;2023-11-19T04:47:57;11.40;99.90
39019;DHT22;24786;51.984;5.872;2023-11-19T04:50:25;11.40;99.90
39019;DHT22;24786;51.984;5.872;2023-11-19T04:52:52;11.30;99.90
39019;DHT22;24786;51.984;5.872;2023-11-19T04:55:19;11.30;99.90
39019;DHT22;24786;51.984;5.872;2023-11-19T04:57:54;11.30;99.90
39019;DHT22;24786;51.984;5.872;2023-11-19T05:00:23;11.30;99.90
39019;DHT22;24786;51.984;5.872;2023-11-19T05:02:55;11.30;99.90
39019;DHT22;24786;51.984;5.872;2023-11-19T05:05:28;11.30;99.90
39019;DHT22;24786;51.984;5.872;2023-11-19T05:07:59;11.30;99.90
39019;DHT22;24786;51.984;5.872;2023-11-19T05:10:25;11.30;99.90
39019;DHT22;24786;51.984;5.872;2023-11-19T05:12:51;11.30;99.90
39019;DHT22;24786;51.984;5.872;2023-11-19T05:15:30;11.30;99.90
39019;DHT22;24786;51.984;5.872;2023-11-19T05:20:54;11.20;99.90
39019;DHT22;24786;51.984;5.872;2023-11-19T05:23:23;11.20;99.90
39019;DHT22;24786;51.984;5.872;2023-11-19T05:26:05;11.30;99.90
39019;DHT22;24786;51.984;5.872;2023-11-19T05:29:06;11.30;99.90
39019;DHT22;24786;51.984;5.872;2023-11-19T05:31:32;11.30;99.90
39019;DHT22;24786;51.984;5.872;2023-11-19T05:34:00;11.40;99.90
39019;DHT22;24786;51.984;5.872;2023-11-19T05:36:25;11.40;99.90
39019;DHT22;24786;51.984;5.872;2023-11-19T05:38:56;11.40;99.90
39019;DHT22;24786;51.984;5.872;2023-11-19T05:41:22;11.40;99.90
39019;DHT22;24786;51.984;5.872;2023-11-19T05:43:54;11.50;99.90
39019;DHT22;24786;51.984;5.872;2023-11-19T05:46:22;11.40;99.90
39019;DHT22;24786;51.984;5.872;2023-11-19T05:48:54;11.50;99.90
39019;DHT22;24786;51.984;5.872;2023-11-19T05:51:19;11.50;99.90
39019;DHT22;24786;51.984;5.872;2023-11-19T05:53:55;11.50;99.90
39019;DHT22;24786;51.984;5.872;2023-11-19T05:56:25;11.50;99.90
39019;DHT22;24786;51.984;5.872;2023-11-19T05:58:57;11.50;99.90
39019;DHT22;24786;51.984;5.872;2023-11-19T06:03:56;11.40;99.90
39019;DHT22;24786;51.984;5.872;2023-11-19T06:06:23;11.50;99.90
39019;DHT22;24786;51.984;5.872;2023-11-19T06:08:55;11.50;99.90
39019;DHT22;24786;51.984;5.872;2023-11-19T06:11:24;11.40;99.90
39019;DHT22;24786;51.984;5.872;2023-11-19T06:13:58;11.50;99.90
39019;DHT22;24786;51.984;5.872;2023-11-19T06:16:26;11.50;99.90
39019;DHT22;24786;51.984;5.872;2023-11-19T06:19:00;11.40;99.90
39019;DHT22;24786;51.984;5.872;2023-11-19T06:21:29;11.50;99.90
39019;DHT22;24786;51.984;5.872;2023-11-19T06:23:54;11.50;99.90
39019;DHT22;24786;51.984;5.872;2023-11-19T06:26:22;11.50;99.90
39019;DHT22;24786;51.984;5.872;2023-11-19T06:28:56;11.40;99.90
39019;DHT22;24786;51.984;5.872;2023-11-19T06:31:24;11.30;99.90
39019;DHT22;24786;51.984;5.872;2023-11-19T06:33:58;11.30;99.90
39019;DHT22;24786;51.984;5.872;2023-11-19T06:36:24;11.40;99.90
39019;DHT22;24786;51.984;5.872;2023-11-19T06:38:52;11.30;99.90
39019;DHT22;24786;51.984;5.872;2023-11-19T06:41:29;11.30;99.90
39019;DHT22;24786;51.984;5.872;2023-11-19T06:43:57;11.30;99.90
39019;DHT22;24786;51.984;5.872;2023-11-19T06:46:23;11.30;99.90
39019;DHT22;24786;51.984;5.872;2023-11-19T06:48:55;11.20;99.90
39019;DHT22;24786;51.984;5.872;2023-11-19T06:51:32;11.20;99.90
39019;DHT22;24786;51.984;5.872;2023-11-19T06:53:58;11.20;99.90
39019;DHT22;24786;51.984;5.872;2023-11-19T06:56:27;11.20;99.90
39019;DHT22;24786;51.984;5.872;2023-11-19T06:58:53;11.30;99.90
39019;DHT22;24786;51.984;5.872;2023-11-19T07:01:25;11.20;99.90
39019;DHT22;24786;51.984;5.872;2023-11-19T07:03:51;11.30;99.90
39019;DHT22;24786;51.984;5.872;2023-11-19T07:06:31;11.20;99.90
39019;DHT22;24786;51.984;5.872;2023-11-19T07:08:57;11.30;99.90
39019;DHT22;24786;51.984;5.872;2023-11-19T07:11:23;11.20;99.90
39019;DHT22;24786;51.984;5.872;2023-11-19T07:13:54;11.30;99.90
39019;DHT22;24786;51.984;5.872;2023-11-19T07:16:29;11.30;99.90
39019;DHT22;24786;51.984;5.872;2023-11-19T07:18:54;11.30;99.90
39019;DHT22;24786;51.984;5.872;2023-11-19T07:21:29;11.30;99.90
39019;DHT22;24786;51.984;5.872;2023-11-19T07:23:55;11.30;99.90
39019;DHT22;24786;51.984;5.872;2023-11-19T07:26:30;11.30;99.90
39019;DHT22;24786;51.984;5.872;2023-11-19T07:28:59;11.30;99.90
39019;DHT22;24786;51.984;5.872;2023-11-19T07:39:49;11.30;99.90
39019;DHT22;24786;51.984;5.872;2023-11-19T07:42:27;11.30;99.90
39019;DHT22;24786;51.984;5.872;2023-11-19T07:44:55;11.30;99.90
39019;DHT22;24786;51.984;5.872;2023-11-19T07:47:28;11.30;99.90
39019;DHT22;24786;51.984;5.872;2023-11-19T07:49:54;11.40;99.90
39019;DHT22;24786;51.984;5.872;2023-11-19T07:52:24;11.50;99.90
39019;DHT22;24786;51.984;5.872;2023-11-19T07:54:55;11.40;99.90
39019;DHT22;24786;51.984;5.872;2023-11-19T07:57:29;11.50;99.90
39019;DHT22;24786;51.984;5.872;2023-11-19T08:00:01;11.50;99.90
39019;DHT22;24786;51.984;5.872;2023-11-19T08:02:28;11.50;99.90
39019;DHT22;24786;51.984;5.872;2023-11-19T08:04:56;11.50;99.90
39019;DHT22;24786;51.984;5.872;2023-11-19T08:07:34;11.60;99.90
39019;DHT22;24786;51.984;5.872;2023-11-19T08:09:59;11.70;99.90
39019;DHT22;24786;51.984;5.872;2023-11-19T08:12:25;11.70;99.90
39019;DHT22;24786;51.984;5.872;2023-11-19T08:14:56;11.80;99.90
39019;DHT22;24786;51.984;5.872;2023-11-19T08:17:23;12.00;99.90
39019;DHT22;24786;51.984;5.872;2023-11-19T08:19:52;11.90;99.90
39019;DHT22;24786;51.984;5.872;2023-11-19T08:22:24;11.90;99.90
39019;DHT22;24786;51.984;5.872;2023-11-19T08:24:52;11.80;99.90
39019;DHT22;24786;51.984;5.872;2023-11-19T08:27:27;11.90;99.90
39019;DHT22;24786;51.984;5.872;2023-11-19T08:30:05;12.00;99.90
39019;DHT22;24786;51.984;5.872;2023-11-19T08:32:34;11.90;99.90
39019;DHT22;24786;51.984;5.872;2023-11-19T08:38:03;11.90;99.90
39019;DHT22;24786;51.984;5.872;2023-11-19T08:40:28;11.90;99.90
39019;DHT22;24786;51.984;5.872;2023-11-19T08:42:58;12.00;99.90
39019;DHT22;24786;51.984;5.872;2023-11-19T08:45:26;12.00;99.90
39019;DHT22;24786;51.984;5.872;2023-11-19T08:47:57;12.00;99.90
39019;DHT22;24786;51.984;5.872;2023-11-19T08:50:34;12.00;99.90
39019;DHT22;24786;51.984;5.872;2023-11-19T08:53:06;12.10;99.90
39019;DHT22;24786;51.984;5.872;2023-11-19T08:59:03;12.10;99.90
39019;DHT22;24786;51.984;5.872;2023-11-19T09:01:29;12.10;99.90
39019;DHT22;24786;51.984;5.872;2023-11-19T09:04:00;12.20;99.90
39019;DHT22;24786;51.984;5.872;2023-11-19T09:06:29;12.20;99.90
39019;DHT22;24786;51.984;5.872;2023-11-19T09:08:57;12.30;99.90
39019;DHT22;24786;51.984;5.872;2023-11-19T09:17:22;12.30;99.90
39019;DHT22;24786;51.984;5.872;2023-11-19T09:19:56;12.30;99.90
39019;DHT22;24786;51.984;5.872;2023-11-19T09:22:31;12.30;99.90
39019;DHT22;24786;51.984;5.872;2023-11-19T09:24:59;12.40;99.90
39019;DHT22;24786;51.984;5.872;2023-11-19T09:27:31;12.40;99.90
39019;DHT22;24786;51.984;5.872;2023-11-19T09:30:03;12.40;99.90
39019;DHT22;24786;51.984;5.872;2023-11-19T09:32:29;12.40;99.90
39019;DHT22;24786;51.984;5.872;2023-11-19T09:37:34;12.40;99.90
39019;DHT22;24786;51.984;5.872;2023-11-19T09:40:00;12.50;99.90
39019;DHT22;24786;51.984;5.872;2023-11-19T09:42:28;12.50;99.90
39019;DHT22;24786;51.984;5.872;2023-11-19T09:50:30;12.50;99.90
39019;DHT22;24786;51.984;5.872;2023-11-19T09:52:59;12.50;99.90
39019;DHT22;24786;51.984;5.872;2023-11-19T09:55:34;12.50;99.90
39019;DHT22;24786;51.984;5.872;2023-11-19T09:58:02;12.50;99.90
39019;DHT22;24786;51.984;5.872;2023-11-19T10:00:31;12.60;99.90
39019;DHT22;24786;51.984;5.872;2023-11-19T10:03:02;12.60;99.90
39019;DHT22;24786;51.984;5.872;2023-11-19T10:05:30;12.70;99.90
39019;DHT22;24786;51.984;5.872;2023-11-19T10:08:05;12.70;99.90
39019;DHT22;24786;51.984;5.872;2023-11-19T10:10:31;12.70;99.90
39019;DHT22;24786;51.984;5.872;2023-11-19T10:13:13;12.80;99.90
39019;DHT22;24786;51.984;5.872;2023-11-19T10:15:40;12.80;99.90
39019;DHT22;24786;51.984;5.872;2023-11-19T10:18:05;12.80;99.90
39019;DHT22;24786;51.984;5.872;2023-11-19T10:20:37;12.80;99.90
39019;DHT22;24786;51.984;5.872;2023-11-19T10:23:05;12.80;99.90
39019;DHT22;24786;51.984;5.872;2023-11-19T10:25:30;12.80;99.90
39019;DHT22;24786;51.984;5.872;2023-11-19T10:28:03;12.80;99.90
39019;DHT22;24786;51.984;5.872;2023-11-19T10:30:34;12.80;99.90
39019;DHT22;24786;51.984;5.872;2023-11-19T10:33:06;12.70;99.90
39019;DHT22;24786;51.984;5.872;2023-11-19T10:38:35;12.80;99.90
39019;DHT22;24786;51.984;5.872;2023-11-19T10:41:03;12.70;99.90
39019;DHT22;24786;51.984;5.872;2023-11-19T10:46:40;12.80;99.90
39019;DHT22;24786;51.984;5.872;2023-11-19T10:49:06;12.80;99.90
39019;DHT22;24786;51.984;5.872;2023-11-19T10:51:32;12.90;99.90
39019;DHT22;24786;51.984;5.872;2023-11-19T10:54:27;13.00;99.90
39019;DHT22;24786;51.984;5.872;2023-11-19T10:57:05;13.00;99.90
39019;DHT22;24786;51.984;5.872;2023-11-19T10:59:35;13.10;99.90
39019;DHT22;24786;51.984;5.872;2023-11-19T11:38:00;13.60;99.90
39019;DHT22;24786;51.984;5.872;2023-11-19T11:40:38;13.60;99.90
39019;DHT22;24786;51.984;5.872;2023-11-19T11:45:59;13.50;99.90
39019;DHT22;24786;51.984;5.872;2023-11-19T11:48:31;13.40;99.90
39019;DHT22;24786;51.984;5.872;2023-11-19T11:50:57;13.40;99.90
39019;DHT22;24786;51.984;5.872;2023-11-19T11:53:31;13.40;99.90
39019;DHT22;24786;51.984;5.872;2023-11-19T11:56:00;13.40;99.90
39019;DHT22;24786;51.984;5.872;2023-11-19T11:58:27;13.50;99.90
39019;DHT22;24786;51.984;5.872;2023-11-19T12:01:04;13.60;99.90
39019;DHT22;24786;51.984;5.872;2023-11-19T12:03:31;13.60;99.90
39019;DHT22;24786;51.984;5.872;2023-11-19T12:05:59;13.60;99.90
39019;DHT22;24786;51.984;5.872;2023-11-19T12:36:58;14.00;99.90
39019;DHT22;24786;51.984;5.872;2023-11-19T12:39:35;14.00;99.90
39019;DHT22;24786;51.984;5.872;2023-11-19T12:42:01;14.00;99.90
39019;DHT22;24786;51.984;5.872;2023-11-19T12:44:26;14.00;99.90
39019;DHT22;24786;51.984;5.872;2023-11-19T12:47:05;14.10;99.90
39019;DHT22;24786;51.984;5.872;2023-11-19T12:49:34;14.10;99.90
39019;DHT22;24786;51.984;5.872;2023-11-19T12:52:10;14.00;99.90
39019;DHT22;24786;51.984;5.872;2023-11-19T12:54:36;14.10;99.90
39019;DHT22;24786;51.984;5.872;2023-11-19T12:57:02;14.10;99.90
39019;DHT22;24786;51.984;5.872;2023-11-19T12:59:28;14.10;99.90
39019;DHT22;24786;51.984;5.872;2023-11-19T13:02:00;14.10;99.90
39019;DHT22;24786;51.984;5.872;2023-11-19T13:04:30;14.00;99.90
39019;DHT22;24786;51.984;5.872;2023-11-19T13:09:33;14.00;99.90
39019;DHT22;24786;51.984;5.872;2023-11-19T13:12:14;14.10;99.90
39019;DHT22;24786;51.984;5.872;2023-11-19T13:14:43;14.10;99.90
39019;DHT22;24786;51.984;5.872;2023-11-19T13:17:14;14.00;99.90
39019;DHT22;24786;51.984;5.872;2023-11-19T13:20:03;14.00;99.90
39019;DHT22;24786;51.984;5.872;2023-11-19T13:22:29;14.00;99.90
39019;DHT22;24786;51.984;5.872;2023-11-19T13:25:07;13.90;99.90
39019;DHT22;24786;51.984;5.872;2023-11-19T13:27:33;13.80;99.90
39019;DHT22;24786;51.984;5.872;2023-11-19T13:30:13;13.80;99.90
39019;DHT22;24786;51.984;5.872;2023-11-19T13:32:42;13.70;99.90
39019;DHT22;24786;51.984;5.872;2023-11-19T13:35:09;13.60;99.90
39019;DHT22;24786;51.984;5.872;2023-11-19T13:37:44;13.60;99.90
39019;DHT22;24786;51.984;5.872;2023-11-19T13:40:10;13.60;99.90
39019;DHT22;24786;51.984;5.872;2023-11-19T13:42:43;13.60;99.90
39019;DHT22;24786;51.984;5.872;2023-11-19T13:45:13;13.50;99.90
39019;DHT22;24786;51.984;5.872;2023-11-19T13:47:45;13.50;99.90
39019;DHT22;24786;51.984;5.872;2023-11-19T13:50:34;13.40;99.90
39019;DHT22;24786;51.984;5.872;2023-11-19T13:53:02;13.40;99.90
39019;DHT22;24786;51.984;5.872;2023-11-19T13:55:38;13.40;99.90
39019;DHT22;24786;51.984;5.872;2023-11-19T13:58:06;13.40;99.90
39019;DHT22;24786;51.984;5.872;2023-11-19T14:01:05;13.40;99.90
39019;DHT22;24786;51.984;5.872;2023-11-19T14:03:38;13.20;99.90
39019;DHT22;24786;51.984;5.872;2023-11-19T14:06:06;13.30;99.90
39019;DHT22;24786;51.984;5.872;2023-11-19T14:08:35;13.30;99.90
39019;DHT22;24786;51.984;5.872;2023-11-19T14:11:13;13.20;99.90
39019;DHT22;24786;51.984;5.872;2023-11-19T14:13:39;13.20;99.90
39019;DHT22;24786;51.984;5.872;2023-11-19T14:18:40;13.10;99.90
39019;DHT22;24786;51.984;5.872;2023-11-19T14:21:09;13.10;99.90
39019;DHT22;24786;51.984;5.872;2023-11-19T14:23:35;13.10;99.90
39019;DHT22;24786;51.984;5.872;2023-11-19T14:26:03;13.10;99.90
39019;DHT22;24786;51.984;5.872;2023-11-19T14:28:34;13.10;99.90
39019;DHT22;24786;51.984;5.872;2023-11-19T14:31:00;13.10;99.90
39019;DHT22;24786;51.984;5.872;2023-11-19T14:33:43;13.10;99.90
39019;DHT22;24786;51.984;5.872;2023-11-19T14:36:09;13.00;99.90
39019;DHT22;24786;51.984;5.872;2023-11-19T14:41:35;13.00;99.90
39019;DHT22;24786;51.984;5.872;2023-11-19T14:44:00;13.00;99.90
39019;DHT22;24786;51.984;5.872;2023-11-19T14:46:26;12.90;99.90
39019;DHT22;24786;51.984;5.872;2023-11-19T14:48:52;12.80;99.90
39019;DHT22;24786;51.984;5.872;2023-11-19T14:51:18;12.70;99.90
39019;DHT22;24786;51.984;5.872;2023-11-19T14:53:43;12.70;99.90
39019;DHT22;24786;51.984;5.872;2023-11-19T14:56:11;12.60;99.90
39019;DHT22;24786;51.984;5.872;2023-11-19T14:58:38;12.60;99.90
39019;DHT22;24786;51.984;5.872;2023-11-19T15:01:03;12.60;99.90
39019;DHT22;24786;51.984;5.872;2023-11-19T15:03:30;12.50;99.90
39019;DHT22;24786;51.984;5.872;2023-11-19T15:05:56;12.50;99.90
39019;DHT22;24786;51.984;5.872;2023-11-19T15:08:21;12.50;99.90
39019;DHT22;24786;51.984;5.872;2023-11-19T15:10:47;12.50;99.90
39019;DHT22;24786;51.984;5.872;2023-11-19T15:13:12;12.40;99.90
39019;DHT22;24786;51.984;5.872;2023-11-19T15:15:38;12.40;99.90
39019;DHT22;24786;51.984;5.872;2023-11-19T15:18:07;12.30;99.90
39019;DHT22;24786;51.984;5.872;2023-11-19T15:20:32;12.30;99.90
39019;DHT22;24786;51.984;5.872;2023-11-19T15:22:58;12.30;99.90
39019;DHT22;24786;51.984;5.872;2023-11-19T15:25:34;12.20;99.90
39019;DHT22;24786;51.984;5.872;2023-11-19T15:28:01;12.30;99.90
39019;DHT22;24786;51.984;5.872;2023-11-19T15:30:27;12.20;99.90
39019;DHT22;24786;51.984;5.872;2023-11-19T15:32:53;12.30;99.90
39019;DHT22;24786;51.984;5.872;2023-11-19T15:35:18;12.30;99.90
39019;DHT22;24786;51.984;5.872;2023-11-19T15:37:44;12.30;99.90
39019;DHT22;24786;51.984;5.872;2023-11-19T15:40:10;12.30;99.90
39019;DHT22;24786;51.984;5.872;2023-11-19T15:42:38;12.30;99.90
39019;DHT22;24786;51.984;5.872;2023-11-19T15:45:05;12.30;99.90
39019;DHT22;24786;51.984;5.872;2023-11-19T15:47:31;12.30;99.90
39019;DHT22;24786;51.984;5.872;2023-11-19T15:49:57;12.30;99.90
39019;DHT22;24786;51.984;5.872;2023-11-19T15:52:22;12.40;99.90
39019;DHT22;24786;51.984;5.872;2023-11-19T15:54:48;12.30;99.90
39019;DHT22;24786;51.984;5.872;2023-11-19T15:57:14;12.40;99.90
39019;DHT22;24786;51.984;5.872;2023-11-19T15:59:40;12.40;99.90
39019;DHT22;24786;51.984;5.872;2023-11-19T16:02:05;12.40;99.90
39019;DHT22;24786;51.984;5.872;2023-11-19T16:04:30;12.40;99.90
39019;DHT22;24786;51.984;5.872;2023-11-19T16:06:56;12.30;99.90
39019;DHT22;24786;51.984;5.872;2023-11-19T16:09:21;12.30;99.90
39019;DHT22;24786;51.984;5.872;2023-11-19T16:11:48;12.30;99.90
39019;DHT22;24786;51.984;5.872;2023-11-19T16:14:13;12.20;99.90
39019;DHT22;24786;51.984;5.872;2023-11-19T16:16:40;12.30;99.90
39019;DHT22;24786;51.984;5.872;2023-11-19T16:19:05;12.20;99.90
39019;DHT22;24786;51.984;5.872;2023-11-19T16:21:34;12.20;99.90
39019;DHT22;24786;51.984;5.872;2023-11-19T16:24:03;12.20;99.90
39019;DHT22;24786;51.984;5.872;2023-11-19T16:26:30;12.20;99.90
39019;DHT22;24786;51.984;5.872;2023-11-19T16:29:00;12.20;99.90
39019;DHT22;24786;51.984;5.872;2023-11-19T16:31:26;12.20;99.90
39019;DHT22;24786;51.984;5.872;2023-11-19T16:33:51;12.20;99.90
39019;DHT22;24786;51.984;5.872;2023-11-19T16:36:17;12.20;99.90
39019;DHT22;24786;51.984;5.872;2023-11-19T16:38:42;12.10;99.90
39019;DHT22;24786;51.984;5.872;2023-11-19T16:41:08;12.20;99.90
39019;DHT22;24786;51.984;5.872;2023-11-19T16:43:37;12.10;99.90
39019;DHT22;24786;51.984;5.872;2023-11-19T16:46:02;12.20;99.90
39019;DHT22;24786;51.984;5.872;2023-11-19T16:48:29;12.10;99.90
39019;DHT22;24786;51.984;5.872;2023-11-19T16:50:54;12.10;99.90
39019;DHT22;24786;51.984;5.872;2023-11-19T16:53:20;12.10;99.90
39019;DHT22;24786;51.984;5.872;2023-11-19T16:55:45;12.10;99.90
39019;DHT22;24786;51.984;5.872;2023-11-19T16:58:12;12.10;99.90
39019;DHT22;24786;51.984;5.872;2023-11-19T17:00:37;12.10;99.90
39019;DHT22;24786;51.984;5.872;2023-11-19T17:03:06;12.10;99.90
39019;DHT22;24786;51.984;5.872;2023-11-19T17:05:31;12.10;99.90
39019;DHT22;24786;51.984;5.872;2023-11-19T17:08:00;12.10;99.90
39019;DHT22;24786;51.984;5.872;2023-11-19T17:10:25;12.00;99.90
39019;DHT22;24786;51.984;5.872;2023-11-19T17:12:51;12.00;99.90
39019;DHT22;24786;51.984;5.872;2023-11-19T17:15:17;11.90;99.90
39019;DHT22;24786;51.984;5.872;2023-11-19T17:17:42;11.90;99.90
39019;DHT22;24786;51.984;5.872;2023-11-19T17:20:09;11.90;99.90
39019;DHT22;24786;51.984;5.872;2023-11-19T17:22:35;11.80;99.90
39019;DHT22;24786;51.984;5.872;2023-11-19T17:25:01;11.80;99.90
39019;DHT22;24786;51.984;5.872;2023-11-19T17:27:28;11.80;99.90
39019;DHT22;24786;51.984;5.872;2023-11-19T17:29:54;11.70;99.90
39019;DHT22;24786;51.984;5.872;2023-11-19T17:32:20;11.70;99.90
39019;DHT22;24786;51.984;5.872;2023-11-19T17:34:46;11.70;99.90
39019;DHT22;24786;51.984;5.872;2023-11-19T17:37:11;11.60;99.90
39019;DHT22;24786;51.984;5.872;2023-11-19T17:39:36;11.60;99.90
39019;DHT22;24786;51.984;5.872;2023-11-19T17:42:02;11.60;99.90
39019;DHT22;24786;51.984;5.872;2023-11-19T17:44:29;11.60;99.90
39019;DHT22;24786;51.984;5.872;2023-11-19T17:46:54;11.60;99.90
39019;DHT22;24786;51.984;5.872;2023-11-19T17:49:19;11.60;99.90
39019;DHT22;24786;51.984;5.872;2023-11-19T17:51:45;11.60;99.90
39019;DHT22;24786;51.984;5.872;2023-11-19T17:54:10;11.60;99.90
39019;DHT22;24786;51.984;5.872;2023-11-19T17:56:36;11.50;99.90
39019;DHT22;24786;51.984;5.872;2023-11-19T17:59:02;11.60;99.90
39019;DHT22;24786;51.984;5.872;2023-11-19T18:01:28;11.50;99.90
39019;DHT22;24786;51.984;5.872;2023-11-19T18:03:53;11.50;99.90
39019;DHT22;24786;51.984;5.872;2023-11-19T18:06:19;11.60;99.90
39019;DHT22;24786;51.984;5.872;2023-11-19T18:08:45;11.50;99.90
39019;DHT22;24786;51.984;5.872;2023-11-19T18:11:12;11.50;99.90
39019;DHT22;24786;51.984;5.872;2023-11-19T18:13:37;11.60;99.90
39019;DHT22;24786;51.984;5.872;2023-11-19T18:16:03;11.50;99.90
39019;DHT22;24786;51.984;5.872;2023-11-19T18:18:30;11.50;99.90
39019;DHT22;24786;51.984;5.872;2023-11-19T18:20:56;11.60;99.90
39019;DHT22;24786;51.984;5.872;2023-11-19T18:23:21;11.40;99.90
39019;DHT22;24786;51.984;5.872;2023-11-19T18:25:47;11.50;99.90
39019;DHT22;24786;51.984;5.872;2023-11-19T18:28:15;11.50;99.90
39019;DHT22;24786;51.984;5.872;2023-11-19T18:30:41;11.50;99.90
39019;DHT22;24786;51.984;5.872;2023-11-19T18:33:07;11.50;99.90
39019;DHT22;24786;51.984;5.872;2023-11-19T18:35:33;11.50;99.90
39019;DHT22;24786;51.984;5.872;2023-11-19T18:37:59;11.50;99.90
39019;DHT22;24786;51.984;5.872;2023-11-19T18:40:24;11.50;99.90
39019;DHT22;24786;51.984;5.872;2023-11-19T18:42:51;11.50;99.90
39019;DHT22;24786;51.984;5.872;2023-11-19T18:45:16;11.50;99.90
39019;DHT22;24786;51.984;5.872;2023-11-19T18:47:44;11.50;99.90
39019;DHT22;24786;51.984;5.872;2023-11-19T18:50:10;11.50;99.90
39019;DHT22;24786;51.984;5.872;2023-11-19T18:52:35;11.50;99.90
39019;DHT22;24786;51.984;5.872;2023-11-19T18:55:01;11.50;99.90
39019;DHT22;24786;51.984;5.872;2023-11-19T18:57:29;11.50;99.90
39019;DHT22;24786;51.984;5.872;2023-11-19T18:59:55;11.50;99.90
39019;DHT22;24786;51.984;5.872;2023-11-19T19:02:21;11.50;99.90
39019;DHT22;24786;51.984;5.872;2023-11-19T19:04:46;11.50;99.90
39019;DHT22;24786;51.984;5.872;2023-11-19T19:07:12;11.50;99.90
39019;DHT22;24786;51.984;5.872;2023-11-19T19:09:37;11.40;99.90
39019;DHT22;24786;51.984;5.872;2023-11-19T19:12:03;11.40;99.90
39019;DHT22;24786;51.984;5.872;2023-11-19T19:14:29;11.40;99.90
39019;DHT22;24786;51.984;5.872;2023-11-19T19:16:54;11.40;99.90
39019;DHT22;24786;51.984;5.872;2023-11-19T19:19:21;11.50;99.90
39019;DHT22;24786;51.984;5.872;2023-11-19T19:21:47;11.50;99.90
39019;DHT22;24786;51.984;5.872;2023-11-19T19:24:13;11.40;99.90
39019;DHT22;24786;51.984;5.872;2023-11-19T19:26:40;11.40;99.90
39019;DHT22;24786;51.984;5.872;2023-11-19T19:29:07;11.40;99.90
39019;DHT22;24786;51.984;5.872;2023-11-19T19:31:32;11.50;99.90
39019;DHT22;24786;51.984;5.872;2023-11-19T19:33:58;11.50;99.90
39019;DHT22;24786;51.984;5.872;2023-11-19T19:36:27;11.40;99.90
39019;DHT22;24786;51.984;5.872;2023-11-19T19:38:56;11.40;99.90
39019;DHT22;24786;51.984;5.872;2023-11-19T19:41:22;11.50;99.90
39019;DHT22;24786;51.984;5.872;2023-11-19T19:43:48;11.50;99.90
39019;DHT22;24786;51.984;5.872;2023-11-19T19:46:14;11.40;99.90
39019;DHT22;24786;51.984;5.872;2023-11-19T19:48:39;11.40;99.90
39019;DHT22;24786;51.984;5.872;2023-11-19T19:51:06;11.40;99.90
39019;DHT22;24786;51.984;5.872;2023-11-19T19:53:33;11.40;99.90